createdAt,value
2023-05-21T00:01:01.962Z,27.10
2023-05-21T00:03:32.561Z,27.80
2023-05-21T00:06:03.822Z,27.20
2023-05-21T00:08:35.075Z,25.40
2023-05-21T00:11:05.725Z,21.40
2023-05-21T00:13:36.249Z,23.90
2023-05-21T00:16:07.590Z,22.10
2023-05-21T00:18:39.450Z,21.30
2023-05-21T00:21:10.133Z,20.70
2023-05-21T00:23:42.840Z,21.00
2023-05-21T00:26:13.341Z,20.50
2023-05-21T00:28:45.999Z,21.50
2023-05-21T00:31:17.418Z,19.80
2023-05-21T00:33:47.964Z,20.40
2023-05-21T00:36:18.665Z,19.80
2023-05-21T00:38:49.987Z,20.40
2023-05-21T00:41:22.891Z,18.90
2023-05-21T00:43:54.021Z,17.50
2023-05-21T00:46:25.202Z,22.50
2023-05-21T00:48:58.110Z,19.60
2023-05-21T00:51:30.388Z,18.60
2023-05-21T00:54:01.732Z,19.00
2023-05-21T00:56:32.497Z,18.90
2023-05-21T00:59:05.676Z,19.90
2023-05-21T01:01:37.359Z,18.10
2023-05-21T01:04:08.221Z,17.60
2023-05-21T01:06:38.835Z,20.50
2023-05-21T01:09:10.040Z,20.70
2023-05-21T01:11:45.543Z,17.90
2023-05-21T01:14:18.084Z,18.20
2023-05-21T01:16:50.793Z,22.30
2023-05-21T01:19:23.599Z,19.50
2023-05-21T01:22:01.167Z,19.50
2023-05-21T01:24:31.877Z,17.00
2023-05-21T01:27:06.632Z,19.20
2023-05-21T01:29:37.180Z,17.10
2023-05-21T01:32:13.739Z,17.90
2023-05-21T01:34:53.627Z,19.00
2023-05-21T01:37:28.901Z,17.50
2023-05-21T01:40:04.927Z,18.20
2023-05-21T01:42:37.326Z,15.80
2023-05-21T01:45:10.711Z,16.20
2023-05-21T01:47:43.021Z,16.60
2023-05-21T01:50:15.095Z,16.70
2023-05-21T01:52:53.254Z,16.90
2023-05-21T01:55:25.461Z,18.00
2023-05-21T01:57:56.771Z,16.60
2023-05-21T02:00:29.681Z,18.20
2023-05-21T02:03:00.747Z,15.70
2023-05-21T02:05:32.756Z,15.50
2023-05-21T02:08:03.806Z,17.20
2023-05-21T02:10:34.293Z,18.40
2023-05-21T02:13:05.092Z,18.20
2023-05-21T02:15:35.983Z,18.50
2023-05-21T02:18:07.123Z,17.30
2023-05-21T02:20:37.670Z,17.60
2023-05-21T02:23:08.171Z,16.20
2023-05-21T02:25:38.779Z,17.90
2023-05-21T02:28:09.568Z,15.30
2023-05-21T02:30:40.753Z,14.40
2023-05-21T02:33:14.384Z,14.50
2023-05-21T02:35:45.026Z,17.40
2023-05-21T02:38:19.551Z,16.50
2023-05-21T02:40:51.772Z,17.00
2023-05-21T02:43:22.328Z,16.00
2023-05-21T02:45:52.938Z,15.50
2023-05-21T02:48:23.861Z,13.70
2023-05-21T02:50:54.771Z,16.60
2023-05-21T02:53:25.325Z,16.70
2023-05-21T02:55:56.606Z,13.90
2023-05-21T02:58:27.219Z,15.60
2023-05-21T03:00:58.057Z,14.40
2023-05-21T03:03:28.729Z,15.90
2023-05-21T03:06:00.987Z,13.70
2023-05-21T03:08:32.014Z,15.60
2023-05-21T03:11:02.585Z,15.70
2023-05-21T03:13:33.171Z,17.50
2023-05-21T03:16:03.758Z,13.60
2023-05-21T03:18:35.896Z,15.90
2023-05-21T03:21:07.095Z,13.20
2023-05-21T03:23:37.652Z,15.20
2023-05-21T03:26:08.241Z,14.90
2023-05-21T03:28:38.823Z,15.50
2023-05-21T03:31:09.314Z,15.30
2023-05-21T03:33:54.781Z,15.20
2023-05-21T03:36:27.752Z,14.00
2023-05-21T03:38:59.432Z,14.80
2023-05-21T03:41:30.032Z,14.70
2023-05-21T03:44:06.858Z,15.10
2023-05-21T03:46:47.371Z,15.60
2023-05-21T03:49:25.557Z,15.00
2023-05-21T03:51:57.541Z,13.80
2023-05-21T03:54:28.363Z,15.00
2023-05-21T03:57:01.790Z,13.70
2023-05-21T03:59:32.437Z,16.40
2023-05-21T04:02:03.222Z,14.50
2023-05-21T04:04:34.802Z,15.90
2023-05-21T04:07:05.749Z,15.60
2023-05-21T04:09:36.831Z,14.10
2023-05-21T04:12:08.987Z,15.10
2023-05-21T04:14:40.684Z,14.00
2023-05-21T04:17:12.779Z,13.50
2023-05-21T04:19:43.628Z,15.00
2023-05-21T04:22:14.292Z,17.50
2023-05-21T04:24:46.574Z,14.70
2023-05-21T04:27:23.693Z,14.50
2023-05-21T04:29:55.791Z,13.10
2023-05-21T04:32:28.686Z,16.70
2023-05-21T04:35:01.170Z,16.10
2023-05-21T04:37:35.351Z,15.50
2023-05-21T04:40:07.648Z,14.00
2023-05-21T04:42:39.085Z,14.90
2023-05-21T04:45:12.304Z,14.10
2023-05-21T04:47:46.268Z,13.70
2023-05-21T04:50:17.653Z,12.30
2023-05-21T04:52:48.616Z,13.90
2023-05-21T04:55:19.308Z,13.60
2023-05-21T04:57:50.069Z,13.00
2023-05-21T05:00:20.932Z,15.30
2023-05-21T05:02:51.527Z,15.00
2023-05-21T05:05:22.333Z,13.70
2023-05-21T05:07:52.825Z,14.90
2023-05-21T05:10:24.331Z,13.60
2023-05-21T05:12:55.798Z,13.70
2023-05-21T05:15:26.825Z,14.50
2023-05-21T05:17:57.443Z,12.80
2023-05-21T05:20:28.002Z,13.20
2023-05-21T05:22:59.060Z,14.50
2023-05-21T05:25:29.660Z,12.40
2023-05-21T05:28:00.313Z,14.80
2023-05-21T05:30:30.910Z,11.80
2023-05-21T05:37:21.719Z,12.50
2023-05-21T05:42:22.264Z,16.10
2023-05-21T05:44:53.060Z,13.30
2023-05-21T05:47:23.632Z,13.70
2023-05-21T05:49:54.160Z,12.40
2023-05-21T05:52:24.902Z,13.60
2023-05-21T05:54:56.235Z,13.10
2023-05-21T05:57:26.927Z,13.10
2023-05-21T05:59:58.328Z,13.90
2023-05-21T06:02:28.905Z,13.60
2023-05-21T06:04:59.581Z,15.00
2023-05-21T06:07:30.150Z,14.90
2023-05-21T06:10:01.186Z,12.20
2023-05-21T06:12:31.775Z,14.40
2023-05-21T06:15:02.333Z,12.00
2023-05-21T06:17:33.249Z,13.50
2023-05-21T06:20:04.157Z,13.00
2023-05-21T06:22:35.005Z,12.00
2023-05-21T06:25:08.171Z,13.40
2023-05-21T06:27:39.970Z,12.30
2023-05-21T06:30:14.598Z,11.90
2023-05-21T06:32:45.916Z,12.50
2023-05-21T06:35:16.758Z,12.40
2023-05-21T06:37:48.743Z,13.10
2023-05-21T06:40:20.612Z,13.60
2023-05-21T06:42:52.056Z,11.80
2023-05-21T06:45:41.772Z,13.30
2023-05-21T06:50:54.851Z,11.30
2023-05-21T06:53:25.795Z,12.40
2023-05-21T06:55:56.355Z,13.40
2023-05-21T07:03:05.349Z,10.50
2023-05-21T07:05:36.540Z,11.30
2023-05-21T07:12:29.366Z,13.50
2023-05-21T07:15:00.247Z,10.30
2023-05-21T07:17:31.600Z,12.20
2023-05-21T07:20:02.483Z,11.10
2023-05-21T07:22:33.471Z,14.80
2023-05-21T07:25:04.088Z,11.40
2023-05-21T07:27:34.986Z,10.90
2023-05-21T07:30:06.249Z,13.20
2023-05-21T07:32:36.921Z,11.30
2023-05-21T07:35:08.825Z,12.00
2023-05-21T07:37:39.519Z,10.10
2023-05-21T07:40:12.359Z,10.30
2023-05-21T07:49:31.854Z,10.30
2023-05-21T07:52:02.880Z,10.80
2023-05-21T07:54:33.846Z,9.10
2023-05-21T07:57:04.902Z,9.80
2023-05-21T07:59:53.285Z,13.20
2023-05-21T08:02:24.512Z,12.80
2023-05-21T08:04:56.279Z,11.50
2023-05-21T08:07:28.806Z,11.60
2023-05-21T08:09:59.418Z,11.50
2023-05-21T08:12:30.373Z,9.90
2023-05-21T08:15:01.262Z,9.90
2023-05-21T08:17:32.180Z,10.20
2023-05-21T08:20:03.706Z,9.80
2023-05-21T08:25:03.835Z,15.20
2023-05-21T08:27:34.353Z,12.30
2023-05-21T08:30:05.910Z,9.80
2023-05-21T08:32:36.508Z,10.80
2023-05-21T08:35:08.742Z,8.80
2023-05-21T08:37:55.818Z,9.50
2023-05-21T08:40:47.921Z,11.90
2023-05-21T08:43:18.838Z,12.00
2023-05-21T08:45:56.421Z,10.20
2023-05-21T08:48:31.829Z,10.10
2023-05-21T08:51:02.710Z,9.60
2023-05-21T08:53:36.795Z,9.80
2023-05-21T08:56:09.831Z,8.30
2023-05-21T08:58:48.061Z,8.80
2023-05-21T09:01:21.909Z,8.90
2023-05-21T09:04:12.364Z,8.40
2023-05-21T09:06:51.394Z,8.70
2023-05-21T09:09:34.181Z,9.30
2023-05-21T09:12:06.362Z,10.10
2023-05-21T09:14:38.408Z,7.90
2023-05-21T09:17:20.340Z,7.80
2023-05-21T09:22:45.072Z,8.00
2023-05-21T09:25:22.099Z,9.90
2023-05-21T09:27:52.884Z,7.30
2023-05-21T09:30:35.753Z,7.50
2023-05-21T09:33:07.088Z,9.40
2023-05-21T09:35:38.301Z,9.60
2023-05-21T09:38:12.274Z,7.10
2023-05-21T09:40:47.612Z,9.70
2023-05-21T09:43:18.982Z,8.30
2023-05-21T09:45:58.334Z,9.00
2023-05-21T09:48:40.924Z,11.00
2023-05-21T09:51:16.054Z,9.80
2023-05-21T09:53:52.400Z,10.10
2023-05-21T09:56:24.552Z,8.30
2023-05-21T09:58:56.839Z,8.00
2023-05-21T10:01:28.658Z,10.20
2023-05-21T10:04:01.191Z,7.50
2023-05-21T10:06:33.784Z,7.60
2023-05-21T10:09:08.798Z,7.10
2023-05-21T10:11:40.965Z,11.70
2023-05-21T10:14:15.906Z,7.50
2023-05-21T10:16:48.504Z,8.40
2023-05-21T10:19:20.348Z,8.20
2023-05-21T10:21:53.317Z,10.10
2023-05-21T10:24:25.269Z,8.90
2023-05-21T10:26:56.651Z,9.70
2023-05-21T10:29:28.201Z,7.80
2023-05-21T10:34:29.232Z,7.20
2023-05-21T10:37:02.693Z,8.80
2023-05-21T10:39:34.756Z,8.00
2023-05-21T10:42:18.014Z,8.20
2023-05-21T10:45:04.342Z,7.00
2023-05-21T10:47:48.150Z,7.00
2023-05-21T10:50:45.754Z,6.10
2023-05-21T10:53:26.225Z,7.60
2023-05-21T10:56:14.231Z,7.40
2023-05-21T10:59:15.437Z,6.30
2023-05-21T11:01:46.277Z,7.10
2023-05-21T11:04:17.682Z,7.10
2023-05-21T11:06:50.792Z,7.70
2023-05-21T11:09:21.452Z,5.20
2023-05-21T11:11:54.823Z,7.80
2023-05-21T11:14:36.690Z,9.20
2023-05-21T11:17:14.583Z,5.80
2023-05-21T11:19:47.457Z,7.70
2023-05-21T11:22:28.658Z,6.60
2023-05-21T11:25:04.237Z,6.50
2023-05-21T11:27:37.092Z,7.90
2023-05-21T11:30:09.864Z,5.80
2023-05-21T11:33:21.505Z,7.10
2023-05-21T11:36:01.924Z,6.40
2023-05-21T11:38:34.077Z,4.20
2023-05-21T11:41:06.090Z,6.50
2023-05-21T11:43:41.216Z,8.10
2023-05-21T11:46:13.344Z,7.00
2023-05-21T11:48:45.674Z,6.10
2023-05-21T11:51:16.567Z,6.40
2023-05-21T11:53:48.953Z,5.10
2023-05-21T11:56:20.427Z,5.20
2023-05-21T12:01:26.526Z,8.10
2023-05-21T12:03:57.153Z,6.30
2023-05-21T12:06:31.580Z,6.80
2023-05-21T12:09:02.265Z,5.60
2023-05-21T12:11:32.956Z,5.20
2023-05-21T12:14:03.595Z,6.50
2023-05-21T12:16:35.307Z,5.70
2023-05-21T12:19:06.566Z,7.40
2023-05-21T12:21:37.841Z,5.60
2023-05-21T12:24:09.333Z,6.30
2023-05-21T12:29:09.483Z,5.70
2023-05-21T12:31:50.178Z,5.80
2023-05-21T12:34:40.241Z,4.60
2023-05-21T12:37:12.218Z,6.50
2023-05-21T12:39:47.783Z,6.10
2023-05-21T12:42:24.618Z,5.20
2023-05-21T12:44:55.882Z,7.20
2023-05-21T12:47:27.933Z,6.10
2023-05-21T12:50:00.775Z,5.50
2023-05-21T12:52:31.989Z,6.00
2023-05-21T12:55:02.708Z,6.60
2023-05-21T12:57:39.027Z,6.00
2023-05-21T13:00:12.650Z,5.70
2023-05-21T13:02:45.958Z,6.00
2023-05-21T13:05:20.630Z,8.70
2023-05-21T13:07:51.719Z,6.30
2023-05-21T13:10:22.246Z,5.50
2023-05-21T13:12:52.781Z,5.20
2023-05-21T13:15:23.968Z,5.00
2023-05-21T13:17:56.727Z,6.00
2023-05-21T13:20:28.078Z,6.70
2023-05-21T13:22:58.822Z,6.30
2023-05-21T13:25:29.956Z,6.10
2023-05-21T13:28:05.078Z,5.70
2023-05-21T13:30:35.758Z,6.20
2023-05-21T13:33:07.581Z,7.20
2023-05-21T13:35:38.154Z,6.30
2023-05-21T13:38:08.621Z,7.60
2023-05-21T13:40:39.373Z,6.00
2023-05-21T13:43:09.997Z,6.70
2023-05-21T13:45:40.450Z,6.30
2023-05-21T13:48:11.086Z,6.40
2023-05-21T13:50:41.688Z,7.10
2023-05-21T13:53:12.234Z,4.70
2023-05-21T13:55:42.800Z,7.20
2023-05-21T13:58:13.302Z,7.90
2023-05-21T14:00:44.151Z,5.90
2023-05-21T14:03:14.694Z,7.60
2023-05-21T14:05:45.226Z,4.60
2023-05-21T14:08:16.680Z,6.50
2023-05-21T14:13:19.989Z,5.60
2023-05-21T14:15:50.961Z,6.20
2023-05-21T14:18:21.445Z,5.30
2023-05-21T14:20:51.969Z,4.70
2023-05-21T14:23:22.604Z,5.80
2023-05-21T14:25:53.312Z,5.70
2023-05-21T14:28:23.870Z,5.10
2023-05-21T14:30:54.616Z,6.00
2023-05-21T14:33:25.207Z,5.30
2023-05-21T14:35:55.710Z,8.10
2023-05-21T14:38:26.317Z,4.20
2023-05-21T14:40:57.232Z,5.70
2023-05-21T14:43:27.790Z,4.70
2023-05-21T14:45:58.398Z,4.70
2023-05-21T14:48:29.330Z,5.50
2023-05-21T14:51:00.449Z,4.80
2023-05-21T14:53:31.013Z,5.60
2023-05-21T14:56:01.536Z,10.90
2023-05-21T14:58:32.272Z,4.90
2023-05-21T15:01:04.335Z,6.20
2023-05-21T15:03:35.085Z,5.40
2023-05-21T15:06:05.885Z,5.10
2023-05-21T15:08:36.376Z,6.20
2023-05-21T15:11:07.766Z,7.00
2023-05-21T15:16:08.081Z,4.40
2023-05-21T15:21:07.918Z,5.30
2023-05-21T15:23:38.577Z,6.20
2023-05-21T15:26:09.930Z,5.20
2023-05-21T15:28:40.454Z,5.10
2023-05-21T15:31:12.402Z,6.10
2023-05-21T15:33:42.934Z,4.40
2023-05-21T15:36:13.498Z,4.40
2023-05-21T15:38:44.343Z,4.80
2023-05-21T15:41:14.905Z,5.10
2023-05-21T15:43:47.016Z,6.80
2023-05-21T15:46:17.882Z,8.60
2023-05-21T15:48:48.522Z,7.10
2023-05-21T15:51:19.657Z,7.10
2023-05-21T15:53:50.450Z,6.80
2023-05-21T15:56:21.953Z,4.80
2023-05-21T15:58:52.434Z,9.00
2023-05-21T16:01:23.113Z,7.30
2023-05-21T16:03:53.720Z,6.40
2023-05-21T16:06:24.414Z,4.70
2023-05-21T16:08:54.924Z,7.60
2023-05-21T16:11:25.449Z,6.70
2023-05-21T16:13:56.099Z,4.70
2023-05-21T16:16:26.669Z,7.60
2023-05-21T16:23:22.262Z,6.10
2023-05-21T16:25:53.120Z,5.00
2023-05-21T16:28:24.437Z,6.00
2023-05-21T16:30:54.997Z,7.90
2023-05-21T16:33:25.866Z,4.20
2023-05-21T16:36:21.276Z,6.10
2023-05-21T16:38:51.824Z,5.70
2023-05-21T16:41:22.843Z,5.80
2023-05-21T16:43:54.380Z,6.70
2023-05-21T16:46:24.940Z,6.50
2023-05-21T16:48:55.534Z,5.30
2023-05-21T16:51:26.220Z,6.10
2023-05-21T16:53:56.718Z,5.00
2023-05-21T16:56:27.829Z,6.80
2023-05-21T16:58:58.336Z,5.30
2023-05-21T17:05:42.202Z,4.90
2023-05-21T17:08:12.707Z,5.10
2023-05-21T17:10:43.213Z,5.10
2023-05-21T17:13:21.694Z,6.90
2023-05-21T17:15:54.053Z,7.40
2023-05-21T17:18:24.549Z,5.80
2023-05-21T17:20:56.030Z,6.70
2023-05-21T17:30:12.280Z,8.40
2023-05-21T17:32:46.675Z,7.40
2023-05-21T17:35:17.216Z,4.60
2023-05-21T17:37:48.154Z,6.90
2023-05-21T17:40:21.403Z,4.50
2023-05-21T17:42:52.119Z,4.60
2023-05-21T17:45:23.818Z,6.50
2023-05-21T17:48:00.219Z,5.40
2023-05-21T17:50:31.234Z,6.60
2023-05-21T17:53:01.767Z,6.60
2023-05-21T17:55:32.316Z,5.40
2023-05-21T17:58:02.843Z,5.00
2023-05-21T18:00:34.461Z,8.00
2023-05-21T18:03:05.191Z,6.20
2023-05-21T18:05:39.215Z,5.20
2023-05-21T18:08:10.137Z,6.10
2023-05-21T18:10:40.691Z,4.80
2023-05-21T18:13:11.246Z,6.90
2023-05-21T18:15:41.743Z,5.30
2023-05-21T18:18:19.874Z,8.50
2023-05-21T18:20:52.141Z,29.00
2023-05-21T18:23:22.745Z,12.80
2023-05-21T18:25:53.289Z,13.00
2023-05-21T18:28:23.770Z,7.20
2023-05-21T18:30:55.245Z,11.80
2023-05-21T18:35:54.725Z,6.00
2023-05-21T18:38:25.844Z,7.80
2023-05-21T18:40:56.333Z,7.40
2023-05-21T18:43:26.842Z,7.00
2023-05-21T18:45:57.492Z,7.10
2023-05-21T18:48:28.021Z,5.20
2023-05-21T18:50:58.574Z,8.50
2023-05-21T18:53:29.065Z,7.00
2023-05-21T18:55:59.595Z,6.00
2023-05-21T18:58:30.560Z,6.90
2023-05-21T19:01:01.190Z,6.90
2023-05-21T19:03:32.197Z,5.20
2023-05-21T19:06:03.600Z,7.60
2023-05-21T19:08:34.122Z,8.70
2023-05-21T19:11:04.600Z,6.10
2023-05-21T19:13:36.305Z,5.80
2023-05-21T19:16:11.006Z,6.60
2023-05-21T19:18:43.533Z,8.20
2023-05-21T19:21:14.679Z,7.20
2023-05-21T19:23:53.205Z,6.10
2023-05-21T19:26:24.321Z,6.10
2023-05-21T19:28:55.504Z,8.70
2023-05-21T19:31:26.303Z,8.10
2023-05-21T19:33:56.883Z,6.00
2023-05-21T19:36:32.628Z,6.00
2023-05-21T19:39:09.210Z,6.90
2023-05-21T19:41:40.120Z,6.90
2023-05-21T19:44:10.690Z,6.00
2023-05-21T19:46:41.194Z,7.60
2023-05-21T19:49:14.051Z,5.60
2023-05-21T19:51:45.002Z,6.10
2023-05-21T19:54:15.593Z,5.30
2023-05-21T19:56:46.079Z,5.70
2023-05-21T19:59:16.624Z,7.00
2023-05-21T20:01:47.214Z,7.10
2023-05-21T20:04:17.836Z,5.50
2023-05-21T20:06:48.424Z,6.40
2023-05-21T20:09:19.433Z,8.80
2023-05-21T20:11:49.977Z,8.10
2023-05-21T20:14:20.468Z,7.90
2023-05-21T20:16:51.006Z,5.90
2023-05-21T20:19:22.567Z,6.80
2023-05-21T20:21:53.326Z,6.90
2023-05-21T20:24:24.024Z,6.60
2023-05-21T20:26:55.087Z,6.20
2023-05-21T20:29:25.666Z,6.20
2023-05-21T20:31:56.192Z,7.80
2023-05-21T20:34:27.477Z,8.10
2023-05-21T20:36:58.361Z,5.30
2023-05-21T20:39:29.850Z,7.40
2023-05-21T20:44:31.868Z,6.60
2023-05-21T20:47:04.845Z,7.30
2023-05-21T20:49:35.334Z,11.80
2023-05-21T20:52:07.646Z,9.80
2023-05-21T20:54:38.146Z,9.50
2023-05-21T20:57:10.096Z,7.90
2023-05-21T20:59:40.573Z,5.40
2023-05-21T21:02:13.712Z,7.00
2023-05-21T21:04:44.407Z,5.20
2023-05-21T21:07:15.494Z,5.80
2023-05-21T21:09:46.554Z,9.00
2023-05-21T21:14:50.765Z,8.30
2023-05-21T21:17:21.568Z,7.20
2023-05-21T21:19:52.172Z,9.20
2023-05-21T21:22:22.702Z,7.00
2023-05-21T21:24:53.249Z,7.90
2023-05-21T21:27:23.956Z,6.30
2023-05-21T21:29:54.721Z,5.40
2023-05-21T21:32:27.063Z,6.60
2023-05-21T21:34:57.573Z,6.10
2023-05-21T21:37:29.443Z,7.00
2023-05-21T21:40:00.374Z,8.70
2023-05-21T21:42:30.849Z,8.00
2023-05-21T21:45:01.351Z,5.50
2023-05-21T21:47:32.208Z,10.40
2023-05-21T21:50:03.130Z,7.30
2023-05-21T21:52:33.746Z,6.70
2023-05-21T21:55:04.429Z,6.00
2023-05-21T21:57:35.324Z,6.30
2023-05-21T22:00:11.586Z,9.60
2023-05-21T22:02:42.264Z,7.10
2023-05-21T22:05:16.448Z,5.40
2023-05-21T22:07:47.890Z,6.70
2023-05-21T22:12:49.030Z,6.00
2023-05-21T22:15:24.974Z,6.40
2023-05-21T22:17:55.691Z,6.70
2023-05-21T22:20:29.303Z,7.20
2023-05-21T22:23:00.265Z,7.60
2023-05-21T22:25:30.832Z,6.60
2023-05-21T22:28:01.331Z,8.90
2023-05-21T22:30:31.883Z,5.90
2023-05-21T22:33:02.466Z,6.80
2023-05-21T22:35:33.128Z,8.50
2023-05-21T22:38:03.871Z,7.20
2023-05-21T22:40:34.372Z,6.50
2023-05-21T22:43:05.003Z,6.60
2023-05-21T22:45:36.001Z,7.20
2023-05-21T22:48:08.470Z,6.60
2023-05-21T22:50:39.509Z,9.80
2023-05-21T22:53:10.243Z,5.70
2023-05-21T22:55:40.904Z,9.30
2023-05-21T22:58:11.412Z,6.10
2023-05-21T23:00:41.911Z,10.20
2023-05-21T23:03:12.467Z,7.70
2023-05-21T23:05:43.450Z,7.50
2023-05-21T23:08:14.133Z,7.70
2023-05-21T23:10:44.640Z,7.60
2023-05-21T23:13:15.181Z,7.10
2023-05-21T23:15:45.865Z,6.00
2023-05-21T23:18:16.595Z,5.70
2023-05-21T23:20:47.159Z,6.80
2023-05-21T23:23:17.875Z,5.70
2023-05-21T23:25:48.407Z,6.50
2023-05-21T23:28:18.907Z,8.50
2023-05-21T23:30:49.510Z,6.50
2023-05-21T23:33:20.234Z,5.90
2023-05-21T23:35:50.761Z,6.20
2023-05-21T23:38:21.238Z,7.10
2023-05-21T23:40:52.047Z,9.20
2023-05-21T23:43:22.653Z,5.90
2023-05-21T23:45:53.266Z,6.90
2023-05-21T23:48:23.802Z,8.60
2023-05-21T23:50:54.444Z,8.20
2023-05-21T23:53:24.914Z,10.30
2023-05-21T23:55:55.449Z,5.20
2023-05-21T23:58:26.165Z,6.20
